sensor_id;sensor_type;location;lat;lon;timestamp;pressure;altitude;pressure_sealevel;temperature;humidity
46111;BME280;31849;55.992;37.252;2022-08-19T00:02:55;99739.97;;;20.40;48.67
46111;BME280;31849;55.992;37.252;2022-08-19T00:07:58;99746.53;;;20.30;49.19
46111;BME280;31849;55.992;37.252;2022-08-19T00:13:02;99752.88;;;20.24;49.25
46111;BME280;31849;55.992;37.252;2022-08-19T00:18:07;99763.75;;;20.16;49.59
46111;BME280;31849;55.992;37.252;2022-08-19T00:23:11;99761.94;;;20.17;49.54
46111;BME280;31849;55.992;37.252;2022-08-19T00:28:14;99766.44;;;20.15;49.68
46111;BME280;31849;55.992;37.252;2022-08-19T00:33:19;99763.69;;;20.18;49.06
46111;BME280;31849;55.992;37.252;2022-08-19T00:38:23;99759.84;;;20.03;49.69
46111;BME280;31849;55.992;37.252;2022-08-19T00:43:39;99762.69;;;19.97;49.84
46111;BME280;31849;55.992;37.252;2022-08-19T00:48:44;99765.44;;;19.94;49.97
46111;BME280;31849;55.992;37.252;2022-08-19T00:53:47;99767.53;;;19.84;50.10
46111;BME280;31849;55.992;37.252;2022-08-19T00:58:51;99776.31;;;19.84;50.12
46111;BME280;31849;55.992;37.252;2022-08-19T01:03:57;99786.69;;;19.89;50.12
46111;BME280;31849;55.992;37.252;2022-08-19T01:09:00;99784.22;;;19.84;50.18
46111;BME280;31849;55.992;37.252;2022-08-19T01:14:05;99785.06;;;19.87;50.14
46111;BME280;31849;55.992;37.252;2022-08-19T01:19:17;99785.31;;;19.79;50.35
46111;BME280;31849;55.992;37.252;2022-08-19T01:24:24;99780.69;;;19.59;50.65
46111;BME280;31849;55.992;37.252;2022-08-19T01:29:28;99771.38;;;19.48;50.71
46111;BME280;31849;55.992;37.252;2022-08-19T01:34:32;99777.63;;;19.46;50.52
46111;BME280;31849;55.992;37.252;2022-08-19T01:39:38;99777.25;;;19.31;50.65
46111;BME280;31849;55.992;37.252;2022-08-19T01:44:42;99798.28;;;19.33;50.35
46111;BME280;31849;55.992;37.252;2022-08-19T01:49:46;99799.13;;;19.33;50.32
46111;BME280;31849;55.992;37.252;2022-08-19T01:54:51;99803.56;;;19.33;50.11
46111;BME280;31849;55.992;37.252;2022-08-19T01:59:55;99806.41;;;19.25;50.09
46111;BME280;31849;55.992;37.252;2022-08-19T02:04:59;99811.94;;;19.18;50.19
46111;BME280;31849;55.992;37.252;2022-08-19T02:10:09;99812.72;;;19.21;50.52
46111;BME280;31849;55.992;37.252;2022-08-19T02:15:14;99823.28;;;19.21;50.09
46111;BME280;31849;55.992;37.252;2022-08-19T02:20:17;99823.16;;;19.24;50.01
46111;BME280;31849;55.992;37.252;2022-08-19T02:25:22;99816.97;;;19.25;50.09
46111;BME280;31849;55.992;37.252;2022-08-19T02:30:26;99815.31;;;19.23;50.01
46111;BME280;31849;55.992;37.252;2022-08-19T02:35:29;99818.59;;;19.29;49.73
46111;BME280;31849;55.992;37.252;2022-08-19T02:40:34;99822.50;;;19.44;49.52
46111;BME280;31849;55.992;37.252;2022-08-19T02:45:38;99820.63;;;19.48;49.53
46111;BME280;31849;55.992;37.252;2022-08-19T02:50:42;99825.53;;;19.59;48.69
46111;BME280;31849;55.992;37.252;2022-08-19T02:55:58;99817.47;;;19.63;49.16
46111;BME280;31849;55.992;37.252;2022-08-19T03:01:02;99821.31;;;19.53;49.64
46111;BME280;31849;55.992;37.252;2022-08-19T03:06:08;99827.81;;;19.43;49.88
46111;BME280;31849;55.992;37.252;2022-08-19T03:11:18;99821.69;;;19.42;49.96
46111;BME280;31849;55.992;37.252;2022-08-19T03:16:24;99817.47;;;19.37;49.49
46111;BME280;31849;55.992;37.252;2022-08-19T03:21:30;99833.00;;;19.46;49.99
46111;BME280;31849;55.992;37.252;2022-08-19T03:26:38;99832.72;;;19.54;49.57
46111;BME280;31849;55.992;37.252;2022-08-19T03:31:43;99843.22;;;19.57;49.80
46111;BME280;31849;55.992;37.252;2022-08-19T03:36:54;99844.97;;;19.83;49.14
46111;BME280;31849;55.992;37.252;2022-08-19T03:42:00;99845.47;;;19.94;49.42
46111;BME280;31849;55.992;37.252;2022-08-19T03:47:24;99846.00;;;20.04;48.88
46111;BME280;31849;55.992;37.252;2022-08-19T03:52:27;99845.00;;;20.32;48.20
46111;BME280;31849;55.992;37.252;2022-08-19T03:57:32;99841.88;;;20.46;48.21
46111;BME280;31849;55.992;37.252;2022-08-19T04:02:36;99840.84;;;20.73;47.51
46111;BME280;31849;55.992;37.252;2022-08-19T04:07:40;99840.22;;;21.13;47.08
46111;BME280;31849;55.992;37.252;2022-08-19T04:12:45;99849.28;;;21.51;46.02
46111;BME280;31849;55.992;37.252;2022-08-19T04:17:49;99840.41;;;21.52;45.88
46111;BME280;31849;55.992;37.252;2022-08-19T04:22:53;99852.31;;;21.63;45.61
46111;BME280;31849;55.992;37.252;2022-08-19T04:27:58;99850.00;;;21.55;45.89
46111;BME280;31849;55.992;37.252;2022-08-19T04:33:01;99853.56;;;21.54;46.00
46111;BME280;31849;55.992;37.252;2022-08-19T04:38:07;99853.19;;;21.63;45.92
46111;BME280;31849;55.992;37.252;2022-08-19T04:43:13;99853.13;;;21.65;45.66
46111;BME280;31849;55.992;37.252;2022-08-19T04:48:17;99855.59;;;21.69;45.70
46111;BME280;31849;55.992;37.252;2022-08-19T04:53:31;99855.91;;;22.03;45.24
46111;BME280;31849;55.992;37.252;2022-08-19T04:58:42;99860.63;;;22.56;43.94
46111;BME280;31849;55.992;37.252;2022-08-19T05:03:46;99859.53;;;23.36;42.02
46111;BME280;31849;55.992;37.252;2022-08-19T05:08:50;99864.50;;;25.13;39.29
46111;BME280;31849;55.992;37.252;2022-08-19T05:13:56;99851.13;;;26.22;37.05
46111;BME280;31849;55.992;37.252;2022-08-19T05:19:00;99859.72;;;26.41;36.40
46111;BME280;31849;55.992;37.252;2022-08-19T05:24:22;99865.91;;;26.42;36.23
46111;BME280;31849;55.992;37.252;2022-08-19T05:29:27;99862.94;;;26.32;36.56
46111;BME280;31849;55.992;37.252;2022-08-19T05:34:37;99868.47;;;26.58;35.54
46111;BME280;31849;55.992;37.252;2022-08-19T05:39:41;99866.00;;;27.11;34.57
46111;BME280;31849;55.992;37.252;2022-08-19T05:44:50;99859.94;;;27.63;34.14
46111;BME280;31849;55.992;37.252;2022-08-19T05:49:53;99860.38;;;27.70;33.94
46111;BME280;31849;55.992;37.252;2022-08-19T05:54:57;99862.75;;;29.52;31.07
46111;BME280;31849;55.992;37.252;2022-08-19T06:00:03;99863.69;;;31.12;29.60
46111;BME280;31849;55.992;37.252;2022-08-19T06:05:11;99868.38;;;33.29;26.46
46111;BME280;31849;55.992;37.252;2022-08-19T06:10:14;99865.78;;;34.26;24.73
46111;BME280;31849;55.992;37.252;2022-08-19T06:15:20;99879.03;;;33.41;25.50
46111;BME280;31849;55.992;37.252;2022-08-19T06:20:27;99854.00;;;32.07;27.10
46111;BME280;31849;55.992;37.252;2022-08-19T06:25:51;99885.28;;;31.87;27.71
46111;BME280;31849;55.992;37.252;2022-08-19T06:30:56;99883.16;;;31.37;28.30
46111;BME280;31849;55.992;37.252;2022-08-19T06:36:00;99872.38;;;31.04;28.48
46111;BME280;31849;55.992;37.252;2022-08-19T06:41:04;99881.41;;;31.03;28.63
46111;BME280;31849;55.992;37.252;2022-08-19T06:46:15;99882.25;;;30.36;29.62
46111;BME280;31849;55.992;37.252;2022-08-19T06:51:19;99878.38;;;29.34;31.32
46111;BME280;31849;55.992;37.252;2022-08-19T06:56:26;99884.50;;;29.23;31.40
46111;BME280;31849;55.992;37.252;2022-08-19T07:01:39;99878.31;;;28.59;32.73
46111;BME280;31849;55.992;37.252;2022-08-19T07:06:43;99883.47;;;28.11;33.38
46111;BME280;31849;55.992;37.252;2022-08-19T07:11:56;99882.91;;;28.19;33.59
46111;BME280;31849;55.992;37.252;2022-08-19T07:17:01;99877.38;;;28.60;32.86
46111;BME280;31849;55.992;37.252;2022-08-19T07:22:07;99881.34;;;29.05;32.31
46111;BME280;31849;55.992;37.252;2022-08-19T07:27:14;99872.00;;;28.73;32.79
46111;BME280;31849;55.992;37.252;2022-08-19T07:32:20;99878.88;;;28.39;33.00
46111;BME280;31849;55.992;37.252;2022-08-19T07:37:24;99871.16;;;28.34;33.29
46111;BME280;31849;55.992;37.252;2022-08-19T07:42:33;99878.75;;;28.15;33.50
46111;BME280;31849;55.992;37.252;2022-08-19T07:47:38;99874.72;;;27.69;34.23
46111;BME280;31849;55.992;37.252;2022-08-19T07:52:51;99876.06;;;27.62;34.36
46111;BME280;31849;55.992;37.252;2022-08-19T07:57:54;99881.94;;;27.54;34.79
46111;BME280;31849;55.992;37.252;2022-08-19T08:02:59;99885.13;;;27.32;35.14
46111;BME280;31849;55.992;37.252;2022-08-19T08:08:03;99888.84;;;27.02;35.47
46111;BME280;31849;55.992;37.252;2022-08-19T08:13:48;99893.69;;;26.95;36.15
46111;BME280;31849;55.992;37.252;2022-08-19T08:19:06;99887.50;;;26.95;36.14
46111;BME280;31849;55.992;37.252;2022-08-19T08:24:27;99886.13;;;27.16;35.72
46111;BME280;31849;55.992;37.252;2022-08-19T08:29:32;99898.78;;;27.27;35.70
46111;BME280;31849;55.992;37.252;2022-08-19T08:34:37;99903.94;;;27.58;35.25
46111;BME280;31849;55.992;37.252;2022-08-19T08:39:41;99897.91;;;27.81;33.96
46111;BME280;31849;55.992;37.252;2022-08-19T08:44:51;99900.38;;;28.63;30.64
46111;BME280;31849;55.992;37.252;2022-08-19T08:50:08;99910.66;;;29.19;29.46
46111;BME280;31849;55.992;37.252;2022-08-19T08:55:17;99899.72;;;29.46;29.18
46111;BME280;31849;55.992;37.252;2022-08-19T09:00:24;99905.53;;;29.03;29.44
46111;BME280;31849;55.992;37.252;2022-08-19T09:05:37;99892.72;;;29.33;29.30
46111;BME280;31849;55.992;37.252;2022-08-19T09:10:52;99904.47;;;29.67;28.73
46111;BME280;31849;55.992;37.252;2022-08-19T09:16:00;99896.09;;;29.47;28.54
46111;BME280;31849;55.992;37.252;2022-08-19T09:21:07;99902.16;;;28.88;29.06
46111;BME280;31849;55.992;37.252;2022-08-19T09:26:15;99897.56;;;28.13;29.57
46111;BME280;31849;55.992;37.252;2022-08-19T09:31:25;99902.16;;;28.11;29.45
46111;BME280;31849;55.992;37.252;2022-08-19T09:36:30;99888.41;;;28.43;28.84
46111;BME280;31849;55.992;37.252;2022-08-19T09:41:36;99904.84;;;28.11;28.04
46111;BME280;31849;55.992;37.252;2022-08-19T09:46:41;99908.16;;;28.28;28.18
46111;BME280;31849;55.992;37.252;2022-08-19T09:51:49;99911.06;;;28.37;28.41
46111;BME280;31849;55.992;37.252;2022-08-19T09:56:53;99912.59;;;27.88;28.82
46111;BME280;31849;55.992;37.252;2022-08-19T10:01:56;99915.44;;;28.13;28.75
46111;BME280;31849;55.992;37.252;2022-08-19T10:07:13;99919.44;;;27.93;30.03
46111;BME280;31849;55.992;37.252;2022-08-19T10:12:16;99923.63;;;27.97;30.29
46111;BME280;31849;55.992;37.252;2022-08-19T10:17:21;99921.22;;;27.92;30.86
46111;BME280;31849;55.992;37.252;2022-08-19T10:22:33;99911.78;;;28.01;30.59
46111;BME280;31849;55.992;37.252;2022-08-19T10:27:39;99906.47;;;28.14;30.15
46111;BME280;31849;55.992;37.252;2022-08-19T10:32:49;99900.13;;;28.53;29.68
46111;BME280;31849;55.992;37.252;2022-08-19T10:37:53;99902.72;;;28.55;29.76
46111;BME280;31849;55.992;37.252;2022-08-19T10:43:03;99913.75;;;28.37;30.39
46111;BME280;31849;55.992;37.252;2022-08-19T10:48:06;99909.34;;;28.36;30.57
46111;BME280;31849;55.992;37.252;2022-08-19T10:53:17;99912.22;;;28.07;29.83
46111;BME280;31849;55.992;37.252;2022-08-19T10:58:25;99924.69;;;27.94;28.79
46111;BME280;31849;55.992;37.252;2022-08-19T11:03:28;99921.66;;;27.86;28.12
46111;BME280;31849;55.992;37.252;2022-08-19T11:08:34;99909.38;;;27.96;27.67
46111;BME280;31849;55.992;37.252;2022-08-19T11:13:41;99910.13;;;27.85;25.95
46111;BME280;31849;55.992;37.252;2022-08-19T11:18:48;99904.47;;;27.90;25.96
46111;BME280;31849;55.992;37.252;2022-08-19T11:23:56;99915.00;;;27.79;25.38
46111;BME280;31849;55.992;37.252;2022-08-19T11:29:01;99902.53;;;27.79;24.93
46111;BME280;31849;55.992;37.252;2022-08-19T11:34:07;99893.91;;;28.01;24.95
46111;BME280;31849;55.992;37.252;2022-08-19T11:39:15;99897.66;;;28.12;25.08
46111;BME280;31849;55.992;37.252;2022-08-19T11:44:19;99901.47;;;27.95;24.39
46111;BME280;31849;55.992;37.252;2022-08-19T11:49:22;99898.34;;;27.48;24.89
46111;BME280;31849;55.992;37.252;2022-08-19T11:54:27;99913.88;;;27.55;23.64
46111;BME280;31849;55.992;37.252;2022-08-19T11:59:30;99908.69;;;27.25;23.52
46111;BME280;31849;55.992;37.252;2022-08-19T12:04:34;99909.00;;;27.20;23.83
46111;BME280;31849;55.992;37.252;2022-08-19T12:09:39;99906.91;;;27.11;24.38
46111;BME280;31849;55.992;37.252;2022-08-19T12:14:43;99914.03;;;27.25;24.16
46111;BME280;31849;55.992;37.252;2022-08-19T12:19:48;99909.19;;;27.17;23.94
46111;BME280;31849;55.992;37.252;2022-08-19T12:24:53;99903.81;;;27.32;23.37
46111;BME280;31849;55.992;37.252;2022-08-19T12:29:57;99897.81;;;27.43;23.47
46111;BME280;31849;55.992;37.252;2022-08-19T12:35:05;99895.81;;;27.32;23.14
46111;BME280;31849;55.992;37.252;2022-08-19T12:40:11;99889.31;;;27.36;22.74
46111;BME280;31849;55.992;37.252;2022-08-19T12:45:15;99888.66;;;27.32;23.56
46111;BME280;31849;55.992;37.252;2022-08-19T12:50:18;99886.19;;;27.57;23.83
46111;BME280;31849;55.992;37.252;2022-08-19T12:55:24;99890.31;;;27.20;23.77
46111;BME280;31849;55.992;37.252;2022-08-19T13:00:30;99890.75;;;27.42;24.01
46111;BME280;31849;55.992;37.252;2022-08-19T13:05:34;99884.88;;;27.22;24.77
46111;BME280;31849;55.992;37.252;2022-08-19T13:10:39;99880.22;;;27.11;25.66
46111;BME280;31849;55.992;37.252;2022-08-19T13:15:43;99901.06;;;26.92;26.14
46111;BME280;31849;55.992;37.252;2022-08-19T13:20:47;99902.78;;;26.78;26.28
46111;BME280;31849;55.992;37.252;2022-08-19T13:25:59;99904.28;;;26.97;26.11
46111;BME280;31849;55.992;37.252;2022-08-19T13:31:02;99908.75;;;26.96;26.44
46111;BME280;31849;55.992;37.252;2022-08-19T13:36:23;99906.75;;;27.00;26.79
46111;BME280;31849;55.992;37.252;2022-08-19T13:41:28;99902.69;;;26.80;27.54
46111;BME280;31849;55.992;37.252;2022-08-19T13:46:32;99897.72;;;26.88;27.40
46111;BME280;31849;55.992;37.252;2022-08-19T13:51:37;99905.81;;;26.72;28.02
46111;BME280;31849;55.992;37.252;2022-08-19T13:56:45;99902.75;;;26.49;28.91
46111;BME280;31849;55.992;37.252;2022-08-19T14:01:48;99902.00;;;26.47;28.78
46111;BME280;31849;55.992;37.252;2022-08-19T14:06:52;99916.16;;;26.48;29.08
46111;BME280;31849;55.992;37.252;2022-08-19T14:11:57;99911.69;;;26.34;29.22
46111;BME280;31849;55.992;37.252;2022-08-19T14:17:00;99906.47;;;26.32;29.49
46111;BME280;31849;55.992;37.252;2022-08-19T14:22:05;99920.91;;;26.28;29.72
46111;BME280;31849;55.992;37.252;2022-08-19T14:27:10;99916.09;;;26.35;29.61
46111;BME280;31849;55.992;37.252;2022-08-19T14:32:13;99920.44;;;26.36;29.59
46111;BME280;31849;55.992;37.252;2022-08-19T14:37:17;99917.97;;;26.33;30.06
46111;BME280;31849;55.992;37.252;2022-08-19T14:42:23;99930.25;;;26.36;30.05
46111;BME280;31849;55.992;37.252;2022-08-19T14:47:26;99910.72;;;26.21;30.47
46111;BME280;31849;55.992;37.252;2022-08-19T14:52:33;99906.72;;;26.13;30.32
46111;BME280;31849;55.992;37.252;2022-08-19T14:57:40;99927.47;;;26.23;30.34
46111;BME280;31849;55.992;37.252;2022-08-19T15:02:43;99923.25;;;26.04;30.92
46111;BME280;31849;55.992;37.252;2022-08-19T15:07:47;99918.03;;;26.03;30.86
46111;BME280;31849;55.992;37.252;2022-08-19T15:12:52;99913.72;;;26.00;30.74
46111;BME280;31849;55.992;37.252;2022-08-19T15:17:57;99924.28;;;25.86;31.38
46111;BME280;31849;55.992;37.252;2022-08-19T15:23:04;99935.75;;;25.72;31.60
46111;BME280;31849;55.992;37.252;2022-08-19T15:28:09;99949.19;;;25.38;32.08
46111;BME280;31849;55.992;37.252;2022-08-19T15:33:13;99945.38;;;25.26;32.65
46111;BME280;31849;55.992;37.252;2022-08-19T15:38:17;99945.47;;;25.09;32.60
46111;BME280;31849;55.992;37.252;2022-08-19T15:43:25;99947.00;;;25.13;32.75
46111;BME280;31849;55.992;37.252;2022-08-19T15:48:29;99906.88;;;24.68;32.74
46111;BME280;31849;55.992;37.252;2022-08-19T15:53:32;99955.19;;;24.92;32.97
46111;BME280;31849;55.992;37.252;2022-08-19T15:58:37;99961.56;;;24.90;33.22
46111;BME280;31849;55.992;37.252;2022-08-19T16:04:00;99957.28;;;24.87;33.37
46111;BME280;31849;55.992;37.252;2022-08-19T16:09:35;99964.88;;;24.78;33.36
46111;BME280;31849;55.992;37.252;2022-08-19T16:14:41;99966.94;;;24.72;33.39
46111;BME280;31849;55.992;37.252;2022-08-19T16:19:44;99966.53;;;24.63;33.94
46111;BME280;31849;55.992;37.252;2022-08-19T16:24:53;99972.16;;;24.56;33.99
46111;BME280;31849;55.992;37.252;2022-08-19T16:29:58;99970.38;;;24.39;34.34
46111;BME280;31849;55.992;37.252;2022-08-19T16:35:03;99976.19;;;24.30;34.45
46111;BME280;31849;55.992;37.252;2022-08-19T16:40:11;99978.97;;;24.27;34.26
46111;BME280;31849;55.992;37.252;2022-08-19T16:45:16;99978.75;;;24.14;34.97
46111;BME280;31849;55.992;37.252;2022-08-19T16:50:20;99990.22;;;23.97;34.73
46111;BME280;31849;55.992;37.252;2022-08-19T16:55:45;100005.00;;;23.84;34.56
46111;BME280;31849;55.992;37.252;2022-08-19T17:00:54;100006.53;;;23.70;34.73
46111;BME280;31849;55.992;37.252;2022-08-19T17:06:09;100015.16;;;23.57;34.32
46111;BME280;31849;55.992;37.252;2022-08-19T17:11:22;100014.94;;;23.42;34.38
46111;BME280;31849;55.992;37.252;2022-08-19T17:16:30;100018.47;;;23.43;34.20
46111;BME280;31849;55.992;37.252;2022-08-19T17:21:36;100030.31;;;23.35;34.30
46111;BME280;31849;55.992;37.252;2022-08-19T17:26:41;100028.56;;;23.15;34.16
46111;BME280;31849;55.992;37.252;2022-08-19T17:31:46;100033.22;;;23.10;33.69
46111;BME280;31849;55.992;37.252;2022-08-19T17:36:49;100037.97;;;23.02;33.95
46111;BME280;31849;55.992;37.252;2022-08-19T17:41:53;100043.69;;;22.93;34.11
46111;BME280;31849;55.992;37.252;2022-08-19T17:47:05;100042.91;;;22.91;34.09
46111;BME280;31849;55.992;37.252;2022-08-19T17:52:08;100040.63;;;22.81;34.26
46111;BME280;31849;55.992;37.252;2022-08-19T17:57:12;100047.09;;;22.76;33.97
46111;BME280;31849;55.992;37.252;2022-08-19T18:02:18;100052.91;;;22.63;34.44
46111;BME280;31849;55.992;37.252;2022-08-19T18:07:23;100055.09;;;22.54;34.67
46111;BME280;31849;55.992;37.252;2022-08-19T18:12:26;100046.59;;;22.45;34.84
46111;BME280;31849;55.992;37.252;2022-08-19T18:17:31;100051.31;;;22.39;35.17
46111;BME280;31849;55.992;37.252;2022-08-19T18:22:38;100057.13;;;22.25;35.22
46111;BME280;31849;55.992;37.252;2022-08-19T18:27:42;100068.38;;;22.09;35.62
46111;BME280;31849;55.992;37.252;2022-08-19T18:32:48;100063.59;;;21.95;35.76
46111;BME280;31849;55.992;37.252;2022-08-19T18:37:53;100066.44;;;21.91;35.35
46111;BME280;31849;55.992;37.252;2022-08-19T18:42:58;100066.63;;;21.86;35.18
46111;BME280;31849;55.992;37.252;2022-08-19T18:48:20;100068.47;;;21.84;34.98
46111;BME280;31849;55.992;37.252;2022-08-19T18:53:42;100065.25;;;21.76;35.02
46111;BME280;31849;55.992;37.252;2022-08-19T18:58:46;100070.91;;;21.67;34.97
46111;BME280;31849;55.992;37.252;2022-08-19T19:03:54;100063.34;;;21.57;35.02
46111;BME280;31849;55.992;37.252;2022-08-19T19:08:58;100073.28;;;21.51;34.80
46111;BME280;31849;55.992;37.252;2022-08-19T19:14:05;100069.81;;;21.49;34.61
46111;BME280;31849;55.992;37.252;2022-08-19T19:19:30;100063.06;;;21.40;34.72
46111;BME280;31849;55.992;37.252;2022-08-19T19:24:34;100064.50;;;21.25;34.83
46111;BME280;31849;55.992;37.252;2022-08-19T19:29:39;100058.06;;;21.08;35.00
46111;BME280;31849;55.992;37.252;2022-08-19T19:34:45;100061.78;;;21.03;34.88
46111;BME280;31849;55.992;37.252;2022-08-19T19:39:48;100070.78;;;20.97;34.94
46111;BME280;31849;55.992;37.252;2022-08-19T19:44:53;100080.63;;;20.94;34.78
46111;BME280;31849;55.992;37.252;2022-08-19T19:49:58;100084.47;;;20.85;35.40
46111;BME280;31849;55.992;37.252;2022-08-19T19:55:19;100086.59;;;20.73;35.34
46111;BME280;31849;55.992;37.252;2022-08-19T20:00:23;100084.94;;;20.71;35.61
46111;BME280;31849;55.992;37.252;2022-08-19T20:05:28;100086.25;;;20.58;35.86
46111;BME280;31849;55.992;37.252;2022-08-19T20:10:32;100080.44;;;20.46;35.73
46111;BME280;31849;55.992;37.252;2022-08-19T20:15:37;100085.72;;;20.46;35.96
46111;BME280;31849;55.992;37.252;2022-08-19T20:20:45;100090.44;;;20.36;35.85
46111;BME280;31849;55.992;37.252;2022-08-19T20:25:51;100090.69;;;20.29;35.87
46111;BME280;31849;55.992;37.252;2022-08-19T20:30:55;100092.00;;;20.15;35.81
46111;BME280;31849;55.992;37.252;2022-08-19T20:36:01;100098.34;;;20.10;35.87
46111;BME280;31849;55.992;37.252;2022-08-19T20:41:05;100094.16;;;20.02;35.99
46111;BME280;31849;55.992;37.252;2022-08-19T20:46:09;100096.13;;;19.96;35.74
46111;BME280;31849;55.992;37.252;2022-08-19T20:51:13;100098.19;;;19.86;36.11
46111;BME280;31849;55.992;37.252;2022-08-19T20:56:17;100100.97;;;19.81;36.17
46111;BME280;31849;55.992;37.252;2022-08-19T21:01:21;100100.22;;;19.76;36.04
46111;BME280;31849;55.992;37.252;2022-08-19T21:06:26;100105.69;;;19.70;36.08
46111;BME280;31849;55.992;37.252;2022-08-19T21:11:33;100106.03;;;19.58;35.77
46111;BME280;31849;55.992;37.252;2022-08-19T21:16:37;100111.31;;;19.58;36.11
46111;BME280;31849;55.992;37.252;2022-08-19T21:21:42;100102.88;;;19.46;36.07
46111;BME280;31849;55.992;37.252;2022-08-19T21:26:45;100110.97;;;19.39;36.20
46111;BME280;31849;55.992;37.252;2022-08-19T21:31:52;100108.38;;;19.37;36.42
46111;BME280;31849;55.992;37.252;2022-08-19T21:36:57;100107.75;;;19.29;36.36
46111;BME280;31849;55.992;37.252;2022-08-19T21:42:00;100104.50;;;19.19;36.58
46111;BME280;31849;55.992;37.252;2022-08-19T21:47:04;100102.97;;;19.10;36.55
46111;BME280;31849;55.992;37.252;2022-08-19T21:52:12;100113.69;;;19.04;36.57
46111;BME280;31849;55.992;37.252;2022-08-19T21:57:16;100119.94;;;19.00;36.67
46111;BME280;31849;55.992;37.252;2022-08-19T22:02:19;100113.16;;;18.91;36.71
46111;BME280;31849;55.992;37.252;2022-08-19T22:07:24;100129.75;;;18.95;36.63
46111;BME280;31849;55.992;37.252;2022-08-19T22:12:29;100126.38;;;18.90;36.92
46111;BME280;31849;55.992;37.252;2022-08-19T22:17:33;100124.91;;;18.78;37.15
46111;BME280;31849;55.992;37.252;2022-08-19T22:22:44;100135.38;;;18.79;36.93
46111;BME280;31849;55.992;37.252;2022-08-19T22:27:49;100132.00;;;18.74;37.12
46111;BME280;31849;55.992;37.252;2022-08-19T22:32:58;100130.34;;;18.70;37.14
46111;BME280;31849;55.992;37.252;2022-08-19T22:38:05;100132.19;;;18.67;37.38
46111;BME280;31849;55.992;37.252;2022-08-19T22:43:11;100127.91;;;18.62;37.42
46111;BME280;31849;55.992;37.252;2022-08-19T22:48:18;100128.06;;;18.56;37.71
46111;BME280;31849;55.992;37.252;2022-08-19T22:53:25;100143.84;;;18.56;37.60
46111;BME280;31849;55.992;37.252;2022-08-19T22:58:29;100138.81;;;18.47;37.77
46111;BME280;31849;55.992;37.252;2022-08-19T23:03:34;100150.34;;;18.41;38.17
46111;BME280;31849;55.992;37.252;2022-08-19T23:08:39;100146.94;;;18.36;38.06
46111;BME280;31849;55.992;37.252;2022-08-19T23:13:43;100145.47;;;18.24;38.27
46111;BME280;31849;55.992;37.252;2022-08-19T23:18:47;100148.22;;;18.20;38.42
46111;BME280;31849;55.992;37.252;2022-08-19T23:23:58;100152.66;;;18.18;38.42
46111;BME280;31849;55.992;37.252;2022-08-19T23:29:02;100152.84;;;18.10;39.07
46111;BME280;31849;55.992;37.252;2022-08-19T23:34:27;100141.66;;;17.99;39.13
46111;BME280;31849;55.992;37.252;2022-08-19T23:39:31;100150.50;;;17.96;39.23
46111;BME280;31849;55.992;37.252;2022-08-19T23:44:36;100162.84;;;17.92;39.55
46111;BME280;31849;55.992;37.252;2022-08-19T23:49:53;100160.34;;;17.86;39.59
46111;BME280;31849;55.992;37.252;2022-08-19T23:55:00;100157.72;;;17.85;39.79
